sensor_id;sensor_type;location;lat;lon;timestamp;P1;durP1;ratioP1;P2;durP2;ratioP2
55112;SDS011;41006;50.920;3.456;2023-03-13T00:00:16;27.42;;;14.07;;
55112;SDS011;41006;50.920;3.456;2023-03-13T00:00:49;22.20;;;13.35;;
55112;SDS011;41006;50.920;3.456;2023-03-13T00:01:24;23.70;;;14.27;;
55112;SDS011;41006;50.920;3.456;2023-03-13T00:01:54;16.20;;;12.55;;
55112;SDS011;41006;50.920;3.456;2023-03-13T00:02:25;24.15;;;13.35;;
55112;SDS011;41006;50.920;3.456;2023-03-13T00:02:55;28.08;;;14.63;;
55112;SDS011;41006;50.920;3.456;2023-03-13T00:03:28;25.35;;;13.70;;
55112;SDS011;41006;50.920;3.456;2023-03-13T00:04:01;29.90;;;13.45;;
55112;SDS011;41006;50.920;3.456;2023-03-13T00:04:31;17.77;;;14.10;;
55112;SDS011;41006;50.920;3.456;2023-03-13T00:05:02;24.52;;;14.20;;
55112;SDS011;41006;50.920;3.456;2023-03-13T00:05:34;21.20;;;13.23;;
55112;SDS011;41006;50.920;3.456;2023-03-13T00:06:04;24.80;;;13.88;;
55112;SDS011;41006;50.920;3.456;2023-03-13T00:06:35;18.35;;;12.57;;
55112;SDS011;41006;50.920;3.456;2023-03-13T00:07:08;19.77;;;13.43;;
55112;SDS011;41006;50.920;3.456;2023-03-13T00:07:39;27.85;;;13.13;;
55112;SDS011;41006;50.920;3.456;2023-03-13T00:08:13;17.55;;;14.13;;
55112;SDS011;41006;50.920;3.456;2023-03-13T00:08:46;17.70;;;13.98;;
55112;SDS011;41006;50.920;3.456;2023-03-13T00:09:19;15.82;;;12.80;;
55112;SDS011;41006;50.920;3.456;2023-03-13T00:09:52;23.73;;;13.98;;
55112;SDS011;41006;50.920;3.456;2023-03-13T00:10:22;21.77;;;13.60;;
55112;SDS011;41006;50.920;3.456;2023-03-13T00:10:52;27.27;;;14.57;;
55112;SDS011;41006;50.920;3.456;2023-03-13T00:11:25;19.10;;;13.35;;
55112;SDS011;41006;50.920;3.456;2023-03-13T00:12:00;25.77;;;13.32;;
55112;SDS011;41006;50.920;3.456;2023-03-13T00:12:35;19.33;;;13.50;;
55112;SDS011;41006;50.920;3.456;2023-03-13T00:13:08;25.77;;;14.05;;
55112;SDS011;41006;50.920;3.456;2023-03-13T00:13:41;20.85;;;13.75;;
55112;SDS011;41006;50.920;3.456;2023-03-13T00:14:13;25.75;;;13.70;;
55112;SDS011;41006;50.920;3.456;2023-03-13T00:14:43;21.02;;;12.48;;
55112;SDS011;41006;50.920;3.456;2023-03-13T00:15:16;20.58;;;13.63;;
55112;SDS011;41006;50.920;3.456;2023-03-13T00:15:48;21.67;;;14.35;;
55112;SDS011;41006;50.920;3.456;2023-03-13T00:16:21;22.05;;;13.63;;
55112;SDS011;41006;50.920;3.456;2023-03-13T00:16:54;25.85;;;14.15;;
55112;SDS011;41006;50.920;3.456;2023-03-13T00:17:24;16.85;;;12.90;;
55112;SDS011;41006;50.920;3.456;2023-03-13T00:17:54;25.50;;;13.18;;
55112;SDS011;41006;50.920;3.456;2023-03-13T00:18:27;16.88;;;13.20;;
55112;SDS011;41006;50.920;3.456;2023-03-13T00:18:57;16.05;;;11.55;;
55112;SDS011;41006;50.920;3.456;2023-03-13T00:19:28;21.73;;;12.55;;
55112;SDS011;41006;50.920;3.456;2023-03-13T00:20:01;20.70;;;12.82;;
55112;SDS011;41006;50.920;3.456;2023-03-13T00:20:31;22.05;;;14.15;;
55112;SDS011;41006;50.920;3.456;2023-03-13T00:21:02;21.13;;;13.85;;
55112;SDS011;41006;50.920;3.456;2023-03-13T00:21:35;15.07;;;12.13;;
55112;SDS011;41006;50.920;3.456;2023-03-13T00:22:10;19.13;;;13.30;;
55112;SDS011;41006;50.920;3.456;2023-03-13T00:22:40;23.20;;;13.25;;
55112;SDS011;41006;50.920;3.456;2023-03-13T00:23:10;21.85;;;13.40;;
55112;SDS011;41006;50.920;3.456;2023-03-13T00:23:43;20.63;;;13.02;;
55112;SDS011;41006;50.920;3.456;2023-03-13T00:24:13;22.10;;;13.50;;
55112;SDS011;41006;50.920;3.456;2023-03-13T00:24:44;21.58;;;13.20;;
55112;SDS011;41006;50.920;3.456;2023-03-13T00:25:15;17.35;;;11.90;;
55112;SDS011;41006;50.920;3.456;2023-03-13T00:25:45;15.63;;;13.80;;
55112;SDS011;41006;50.920;3.456;2023-03-13T00:26:18;17.70;;;12.82;;
55112;SDS011;41006;50.920;3.456;2023-03-13T00:26:51;20.98;;;12.73;;
55112;SDS011;41006;50.920;3.456;2023-03-13T00:27:21;19.13;;;13.25;;
55112;SDS011;41006;50.920;3.456;2023-03-13T00:27:54;15.75;;;12.38;;
55112;SDS011;41006;50.920;3.456;2023-03-13T00:28:28;14.52;;;13.10;;
55112;SDS011;41006;50.920;3.456;2023-03-13T00:29:03;22.60;;;13.32;;
55112;SDS011;41006;50.920;3.456;2023-03-13T00:29:33;20.30;;;12.27;;
55112;SDS011;41006;50.920;3.456;2023-03-13T00:30:03;20.42;;;12.93;;
55112;SDS011;41006;50.920;3.456;2023-03-13T00:30:37;17.92;;;13.15;;
55112;SDS011;41006;50.920;3.456;2023-03-13T00:31:11;16.85;;;13.45;;
55112;SDS011;41006;50.920;3.456;2023-03-13T00:31:41;19.80;;;12.73;;
55112;SDS011;41006;50.920;3.456;2023-03-13T00:32:14;16.63;;;13.05;;
55112;SDS011;41006;50.920;3.456;2023-03-13T00:32:47;13.63;;;11.45;;
55112;SDS011;41006;50.920;3.456;2023-03-13T00:33:20;17.08;;;12.55;;
55112;SDS011;41006;50.920;3.456;2023-03-13T00:33:52;19.48;;;12.40;;
55112;SDS011;41006;50.920;3.456;2023-03-13T00:34:23;24.98;;;13.07;;
55112;SDS011;41006;50.920;3.456;2023-03-13T00:34:57;17.15;;;12.75;;
55112;SDS011;41006;50.920;3.456;2023-03-13T00:35:29;19.05;;;12.60;;
55112;SDS011;41006;50.920;3.456;2023-03-13T00:36:00;13.07;;;11.88;;
55112;SDS011;41006;50.920;3.456;2023-03-13T00:36:31;15.48;;;12.18;;
55112;SDS011;41006;50.920;3.456;2023-03-13T00:37:02;13.13;;;11.85;;
55112;SDS011;41006;50.920;3.456;2023-03-13T00:37:34;13.77;;;12.20;;
55112;SDS011;41006;50.920;3.456;2023-03-13T00:38:07;18.20;;;12.20;;
55112;SDS011;41006;50.920;3.456;2023-03-13T00:38:40;17.70;;;12.95;;
55112;SDS011;41006;50.920;3.456;2023-03-13T00:39:11;14.40;;;12.40;;
55112;SDS011;41006;50.920;3.456;2023-03-13T00:39:44;16.33;;;12.15;;
55112;SDS011;41006;50.920;3.456;2023-03-13T00:40:14;18.48;;;12.98;;
55112;SDS011;41006;50.920;3.456;2023-03-13T00:40:44;16.13;;;11.88;;
55112;SDS011;41006;50.920;3.456;2023-03-13T00:41:20;14.15;;;11.55;;
55112;SDS011;41006;50.920;3.456;2023-03-13T00:41:51;13.98;;;11.88;;
55112;SDS011;41006;50.920;3.456;2023-03-13T00:42:21;19.70;;;12.55;;
55112;SDS011;41006;50.920;3.456;2023-03-13T00:42:54;15.18;;;11.82;;
55112;SDS011;41006;50.920;3.456;2023-03-13T00:43:26;14.23;;;12.80;;
55112;SDS011;41006;50.920;3.456;2023-03-13T00:43:57;15.35;;;11.45;;
55112;SDS011;41006;50.920;3.456;2023-03-13T00:44:27;16.73;;;12.98;;
55112;SDS011;41006;50.920;3.456;2023-03-13T00:44:57;14.27;;;12.43;;
55112;SDS011;41006;50.920;3.456;2023-03-13T00:45:28;14.90;;;11.98;;
55112;SDS011;41006;50.920;3.456;2023-03-13T00:46:00;14.77;;;12.48;;
55112;SDS011;41006;50.920;3.456;2023-03-13T00:46:30;13.20;;;12.00;;
55112;SDS011;41006;50.920;3.456;2023-03-13T00:47:00;19.35;;;13.43;;
55112;SDS011;41006;50.920;3.456;2023-03-13T00:47:34;15.35;;;12.85;;
55112;SDS011;41006;50.920;3.456;2023-03-13T00:48:04;14.15;;;12.75;;
55112;SDS011;41006;50.920;3.456;2023-03-13T00:48:35;17.40;;;12.93;;
55112;SDS011;41006;50.920;3.456;2023-03-13T00:49:05;15.52;;;12.93;;
55112;SDS011;41006;50.920;3.456;2023-03-13T00:49:35;14.95;;;11.95;;
55112;SDS011;41006;50.920;3.456;2023-03-13T00:50:06;15.48;;;13.40;;
55112;SDS011;41006;50.920;3.456;2023-03-13T00:50:36;22.95;;;14.55;;
55112;SDS011;41006;50.920;3.456;2023-03-13T00:51:09;17.25;;;13.02;;
55112;SDS011;41006;50.920;3.456;2023-03-13T00:51:40;13.55;;;12.35;;
55112;SDS011;41006;50.920;3.456;2023-03-13T00:52:10;13.70;;;12.32;;
55112;SDS011;41006;50.920;3.456;2023-03-13T00:52:40;18.40;;;13.30;;
55112;SDS011;41006;50.920;3.456;2023-03-13T00:53:10;16.60;;;12.63;;
55112;SDS011;41006;50.920;3.456;2023-03-13T00:53:41;13.13;;;11.73;;
55112;SDS011;41006;50.920;3.456;2023-03-13T00:54:13;13.10;;;11.63;;
55112;SDS011;41006;50.920;3.456;2023-03-13T00:54:43;17.65;;;11.65;;
55112;SDS011;41006;50.920;3.456;2023-03-13T00:55:14;17.65;;;12.15;;
55112;SDS011;41006;50.920;3.456;2023-03-13T00:56:40;15.38;;;11.30;;
55112;SDS011;41006;50.920;3.456;2023-03-13T00:57:15;12.00;;;10.90;;
55112;SDS011;41006;50.920;3.456;2023-03-13T00:57:45;14.13;;;12.15;;
55112;SDS011;41006;50.920;3.456;2023-03-13T00:58:18;14.57;;;11.85;;
55112;SDS011;41006;50.920;3.456;2023-03-13T00:58:50;12.73;;;11.27;;
55112;SDS011;41006;50.920;3.456;2023-03-13T00:59:21;15.63;;;12.05;;
55112;SDS011;41006;50.920;3.456;2023-03-13T00:59:51;15.18;;;12.95;;
55112;SDS011;41006;50.920;3.456;2023-03-13T01:00:21;18.08;;;12.10;;
55112;SDS011;41006;50.920;3.456;2023-03-13T01:00:54;16.45;;;12.40;;
55112;SDS011;41006;50.920;3.456;2023-03-13T01:01:26;16.42;;;11.93;;
55112;SDS011;41006;50.920;3.456;2023-03-13T01:01:56;12.18;;;11.05;;
55112;SDS011;41006;50.920;3.456;2023-03-13T01:02:26;17.00;;;13.02;;
55112;SDS011;41006;50.920;3.456;2023-03-13T01:02:57;17.80;;;12.38;;
55112;SDS011;41006;50.920;3.456;2023-03-13T01:03:27;15.18;;;12.02;;
55112;SDS011;41006;50.920;3.456;2023-03-13T01:04:04;13.73;;;11.40;;
55112;SDS011;41006;50.920;3.456;2023-03-13T01:04:34;13.88;;;11.73;;
55112;SDS011;41006;50.920;3.456;2023-03-13T01:05:04;20.25;;;12.23;;
55112;SDS011;41006;50.920;3.456;2023-03-13T01:05:35;14.18;;;12.65;;
55112;SDS011;41006;50.920;3.456;2023-03-13T01:06:06;17.27;;;12.20;;
55112;SDS011;41006;50.920;3.456;2023-03-13T01:06:37;13.93;;;12.32;;
55112;SDS011;41006;50.920;3.456;2023-03-13T01:07:09;15.02;;;12.07;;
55112;SDS011;41006;50.920;3.456;2023-03-13T01:07:42;11.70;;;10.63;;
55112;SDS011;41006;50.920;3.456;2023-03-13T01:08:17;12.77;;;11.13;;
55112;SDS011;41006;50.920;3.456;2023-03-13T01:08:48;17.17;;;11.70;;
55112;SDS011;41006;50.920;3.456;2023-03-13T01:09:18;14.40;;;12.55;;
55112;SDS011;41006;50.920;3.456;2023-03-13T01:09:51;13.45;;;12.02;;
55112;SDS011;41006;50.920;3.456;2023-03-13T01:10:24;17.48;;;12.15;;
55112;SDS011;41006;50.920;3.456;2023-03-13T01:11:13;13.13;;;11.88;;
55112;SDS011;41006;50.920;3.456;2023-03-13T01:11:44;12.45;;;11.40;;
55112;SDS011;41006;50.920;3.456;2023-03-13T01:12:17;12.75;;;11.30;;
55112;SDS011;41006;50.920;3.456;2023-03-13T01:12:50;13.10;;;11.80;;
55112;SDS011;41006;50.920;3.456;2023-03-13T01:13:20;13.32;;;12.13;;
55112;SDS011;41006;50.920;3.456;2023-03-13T01:13:54;17.25;;;13.10;;
55112;SDS011;41006;50.920;3.456;2023-03-13T01:14:27;16.50;;;12.50;;
55112;SDS011;41006;50.920;3.456;2023-03-13T01:14:59;13.30;;;12.20;;
55112;SDS011;41006;50.920;3.456;2023-03-13T01:15:32;13.52;;;12.15;;
55112;SDS011;41006;50.920;3.456;2023-03-13T01:16:33;14.40;;;11.90;;
55112;SDS011;41006;50.920;3.456;2023-03-13T01:17:04;13.95;;;12.02;;
55112;SDS011;41006;50.920;3.456;2023-03-13T01:17:37;15.73;;;11.50;;
55112;SDS011;41006;50.920;3.456;2023-03-13T01:18:10;13.68;;;12.43;;
55112;SDS011;41006;50.920;3.456;2023-03-13T01:18:41;13.57;;;12.38;;
55112;SDS011;41006;50.920;3.456;2023-03-13T01:19:13;13.10;;;11.43;;
55112;SDS011;41006;50.920;3.456;2023-03-13T01:19:46;19.17;;;13.85;;
55112;SDS011;41006;50.920;3.456;2023-03-13T01:20:16;13.85;;;12.60;;
55112;SDS011;41006;50.920;3.456;2023-03-13T01:20:46;13.52;;;12.23;;
55112;SDS011;41006;50.920;3.456;2023-03-13T01:21:19;13.77;;;12.27;;
55112;SDS011;41006;50.920;3.456;2023-03-13T01:21:50;18.23;;;12.68;;
55112;SDS011;41006;50.920;3.456;2023-03-13T01:22:20;19.08;;;12.30;;
55112;SDS011;41006;50.920;3.456;2023-03-13T01:22:50;14.38;;;12.18;;
55112;SDS011;41006;50.920;3.456;2023-03-13T01:23:20;18.48;;;12.70;;
55112;SDS011;41006;50.920;3.456;2023-03-13T01:23:53;13.02;;;11.85;;
55112;SDS011;41006;50.920;3.456;2023-03-13T01:24:24;16.75;;;11.85;;
55112;SDS011;41006;50.920;3.456;2023-03-13T01:24:54;12.68;;;11.65;;
55112;SDS011;41006;50.920;3.456;2023-03-13T01:25:26;12.02;;;10.88;;
55112;SDS011;41006;50.920;3.456;2023-03-13T01:25:59;15.00;;;12.48;;
55112;SDS011;41006;50.920;3.456;2023-03-13T01:26:32;17.27;;;11.70;;
55112;SDS011;41006;50.920;3.456;2023-03-13T01:27:04;15.52;;;11.98;;
55112;SDS011;41006;50.920;3.456;2023-03-13T01:27:34;15.57;;;11.65;;
55112;SDS011;41006;50.920;3.456;2023-03-13T01:28:05;12.40;;;11.05;;
55112;SDS011;41006;50.920;3.456;2023-03-13T01:28:35;13.98;;;11.82;;
55112;SDS011;41006;50.920;3.456;2023-03-13T01:29:07;13.48;;;12.15;;
55112;SDS011;41006;50.920;3.456;2023-03-13T01:29:40;13.50;;;12.07;;
55112;SDS011;41006;50.920;3.456;2023-03-13T01:30:13;13.77;;;12.32;;
55112;SDS011;41006;50.920;3.456;2023-03-13T01:30:46;13.73;;;12.45;;
55112;SDS011;41006;50.920;3.456;2023-03-13T01:31:21;14.10;;;12.35;;
55112;SDS011;41006;50.920;3.456;2023-03-13T01:31:51;13.68;;;12.23;;
55112;SDS011;41006;50.920;3.456;2023-03-13T01:32:24;12.88;;;11.75;;
55112;SDS011;41006;50.920;3.456;2023-03-13T01:32:54;11.68;;;10.88;;
55112;SDS011;41006;50.920;3.456;2023-03-13T01:33:27;13.68;;;12.00;;
55112;SDS011;41006;50.920;3.456;2023-03-13T01:34:01;12.13;;;10.80;;
55112;SDS011;41006;50.920;3.456;2023-03-13T01:34:31;13.02;;;11.82;;
55112;SDS011;41006;50.920;3.456;2023-03-13T01:35:02;14.43;;;12.38;;
55112;SDS011;41006;50.920;3.456;2023-03-13T01:35:34;12.77;;;11.57;;
55112;SDS011;41006;50.920;3.456;2023-03-13T01:36:05;12.52;;;11.48;;
55112;SDS011;41006;50.920;3.456;2023-03-13T01:36:35;14.30;;;11.88;;
55112;SDS011;41006;50.920;3.456;2023-03-13T01:37:06;12.65;;;11.65;;
55112;SDS011;41006;50.920;3.456;2023-03-13T01:37:36;12.95;;;11.80;;
55112;SDS011;41006;50.920;3.456;2023-03-13T01:38:06;12.57;;;11.13;;
55112;SDS011;41006;50.920;3.456;2023-03-13T01:38:37;13.13;;;11.82;;
55112;SDS011;41006;50.920;3.456;2023-03-13T01:39:07;12.25;;;11.07;;
55112;SDS011;41006;50.920;3.456;2023-03-13T01:39:40;13.20;;;11.75;;
55112;SDS011;41006;50.920;3.456;2023-03-13T01:40:13;12.38;;;11.27;;
55112;SDS011;41006;50.920;3.456;2023-03-13T01:40:46;12.10;;;11.05;;
55112;SDS011;41006;50.920;3.456;2023-03-13T01:41:20;12.10;;;11.00;;
55112;SDS011;41006;50.920;3.456;2023-03-13T01:41:53;12.57;;;11.13;;
55112;SDS011;41006;50.920;3.456;2023-03-13T01:42:23;11.70;;;10.73;;
55112;SDS011;41006;50.920;3.456;2023-03-13T01:42:57;14.20;;;11.48;;
55112;SDS011;41006;50.920;3.456;2023-03-13T01:43:29;15.75;;;11.48;;
55112;SDS011;41006;50.920;3.456;2023-03-13T01:44:00;14.77;;;12.68;;
55112;SDS011;41006;50.920;3.456;2023-03-13T01:44:47;12.15;;;11.07;;
55112;SDS011;41006;50.920;3.456;2023-03-13T01:46:38;11.48;;;10.57;;
55112;SDS011;41006;50.920;3.456;2023-03-13T01:47:08;11.15;;;10.13;;
55112;SDS011;41006;50.920;3.456;2023-03-13T01:47:42;12.15;;;11.07;;
55112;SDS011;41006;50.920;3.456;2023-03-13T01:48:12;11.52;;;10.40;;
55112;SDS011;41006;50.920;3.456;2023-03-13T01:48:49;11.85;;;10.82;;
55112;SDS011;41006;50.920;3.456;2023-03-13T01:49:23;11.57;;;10.48;;
55112;SDS011;41006;50.920;3.456;2023-03-13T01:49:59;13.95;;;10.75;;
55112;SDS011;41006;50.920;3.456;2023-03-13T01:50:29;12.55;;;11.35;;
55112;SDS011;41006;50.920;3.456;2023-03-13T01:51:05;12.43;;;11.18;;
55112;SDS011;41006;50.920;3.456;2023-03-13T01:52:16;11.95;;;11.02;;
55112;SDS011;41006;50.920;3.456;2023-03-13T01:52:49;11.73;;;10.82;;
55112;SDS011;41006;50.920;3.456;2023-03-13T01:53:19;12.35;;;11.18;;
55112;SDS011;41006;50.920;3.456;2023-03-13T01:53:51;12.00;;;10.93;;
55112;SDS011;41006;50.920;3.456;2023-03-13T01:54:27;13.07;;;11.77;;
55112;SDS011;41006;50.920;3.456;2023-03-13T01:54:59;12.57;;;11.43;;
55112;SDS011;41006;50.920;3.456;2023-03-13T01:55:31;11.80;;;10.55;;
55112;SDS011;41006;50.920;3.456;2023-03-13T01:56:03;12.43;;;11.05;;
55112;SDS011;41006;50.920;3.456;2023-03-13T01:56:36;12.70;;;11.52;;
55112;SDS011;41006;50.920;3.456;2023-03-13T01:57:49;12.40;;;11.10;;
55112;SDS011;41006;50.920;3.456;2023-03-13T01:58:20;12.00;;;11.10;;
55112;SDS011;41006;50.920;3.456;2023-03-13T01:58:51;12.23;;;11.13;;
55112;SDS011;41006;50.920;3.456;2023-03-13T01:59:25;13.20;;;12.07;;
55112;SDS011;41006;50.920;3.456;2023-03-13T02:00:18;12.60;;;11.40;;
55112;SDS011;41006;50.920;3.456;2023-03-13T02:00:47;11.88;;;10.95;;
55112;SDS011;41006;50.920;3.456;2023-03-13T02:01:17;13.00;;;11.70;;
55112;SDS011;41006;50.920;3.456;2023-03-13T02:01:53;12.35;;;11.32;;
55112;SDS011;41006;50.920;3.456;2023-03-13T02:02:24;13.48;;;12.10;;
55112;SDS011;41006;50.920;3.456;2023-03-13T02:02:56;12.98;;;11.88;;
55112;SDS011;41006;50.920;3.456;2023-03-13T02:03:27;12.57;;;11.27;;
55112;SDS011;41006;50.920;3.456;2023-03-13T02:03:59;12.82;;;11.82;;
55112;SDS011;41006;50.920;3.456;2023-03-13T02:04:30;13.13;;;12.13;;
55112;SDS011;41006;50.920;3.456;2023-03-13T02:05:03;12.40;;;11.48;;
55112;SDS011;41006;50.920;3.456;2023-03-13T02:05:34;13.57;;;12.27;;
55112;SDS011;41006;50.920;3.456;2023-03-13T02:06:07;13.02;;;12.02;;
55112;SDS011;41006;50.920;3.456;2023-03-13T02:06:38;13.43;;;12.27;;
55112;SDS011;41006;50.920;3.456;2023-03-13T02:07:13;12.90;;;11.68;;
55112;SDS011;41006;50.920;3.456;2023-03-13T02:07:47;13.35;;;12.40;;
55112;SDS011;41006;50.920;3.456;2023-03-13T02:08:24;12.60;;;11.75;;
55112;SDS011;41006;50.920;3.456;2023-03-13T02:08:58;13.88;;;12.63;;
55112;SDS011;41006;50.920;3.456;2023-03-13T02:09:29;12.85;;;11.75;;
55112;SDS011;41006;50.920;3.456;2023-03-13T02:10:00;12.07;;;10.93;;
55112;SDS011;41006;50.920;3.456;2023-03-13T02:10:30;14.13;;;12.82;;
55112;SDS011;41006;50.920;3.456;2023-03-13T02:11:54;13.38;;;12.30;;
55112;SDS011;41006;50.920;3.456;2023-03-13T02:12:36;13.35;;;12.05;;
55112;SDS011;41006;50.920;3.456;2023-03-13T02:13:10;12.60;;;11.77;;
55112;SDS011;41006;50.920;3.456;2023-03-13T02:13:44;13.77;;;12.70;;
55112;SDS011;41006;50.920;3.456;2023-03-13T02:14:15;15.27;;;13.55;;
55112;SDS011;41006;50.920;3.456;2023-03-13T02:14:48;14.02;;;12.82;;
55112;SDS011;41006;50.920;3.456;2023-03-13T02:15:19;25.50;;;13.02;;
55112;SDS011;41006;50.920;3.456;2023-03-13T02:15:51;13.50;;;12.30;;
55112;SDS011;41006;50.920;3.456;2023-03-13T02:16:22;13.40;;;12.27;;
55112;SDS011;41006;50.920;3.456;2023-03-13T02:16:53;12.75;;;11.95;;
55112;SDS011;41006;50.920;3.456;2023-03-13T02:17:26;14.05;;;12.75;;
55112;SDS011;41006;50.920;3.456;2023-03-13T02:18:01;14.25;;;13.13;;
55112;SDS011;41006;50.920;3.456;2023-03-13T02:18:31;14.05;;;12.82;;
55112;SDS011;41006;50.920;3.456;2023-03-13T02:19:02;13.98;;;12.70;;
55112;SDS011;41006;50.920;3.456;2023-03-13T02:19:45;15.40;;;12.77;;
55112;SDS011;41006;50.920;3.456;2023-03-13T02:20:17;13.02;;;12.00;;
55112;SDS011;41006;50.920;3.456;2023-03-13T02:20:48;14.10;;;13.00;;
55112;SDS011;41006;50.920;3.456;2023-03-13T02:21:25;14.32;;;13.23;;
55112;SDS011;41006;50.920;3.456;2023-03-13T02:22:05;13.68;;;12.40;;
55112;SDS011;41006;50.920;3.456;2023-03-13T02:23:33;14.73;;;13.57;;
55112;SDS011;41006;50.920;3.456;2023-03-13T02:24:08;14.25;;;13.18;;
55112;SDS011;41006;50.920;3.456;2023-03-13T02:24:53;14.63;;;13.32;;
55112;SDS011;41006;50.920;3.456;2023-03-13T02:25:55;13.85;;;12.63;;
55112;SDS011;41006;50.920;3.456;2023-03-13T02:26:26;13.90;;;12.65;;
55112;SDS011;41006;50.920;3.456;2023-03-13T02:26:56;14.20;;;13.00;;
55112;SDS011;41006;50.920;3.456;2023-03-13T02:27:26;14.43;;;13.30;;
55112;SDS011;41006;50.920;3.456;2023-03-13T02:27:59;13.40;;;12.40;;
55112;SDS011;41006;50.920;3.456;2023-03-13T02:28:31;14.15;;;13.10;;
55112;SDS011;41006;50.920;3.456;2023-03-13T02:29:05;14.68;;;13.23;;
55112;SDS011;41006;50.920;3.456;2023-03-13T02:29:38;13.43;;;12.38;;
55112;SDS011;41006;50.920;3.456;2023-03-13T02:30:09;13.52;;;12.50;;
55112;SDS011;41006;50.920;3.456;2023-03-13T02:30:41;13.93;;;12.77;;
55112;SDS011;41006;50.920;3.456;2023-03-13T02:31:11;13.95;;;12.65;;
55112;SDS011;41006;50.920;3.456;2023-03-13T02:31:45;13.23;;;12.25;;
55112;SDS011;41006;50.920;3.456;2023-03-13T02:32:15;13.82;;;12.63;;
55112;SDS011;41006;50.920;3.456;2023-03-13T02:32:45;15.50;;;13.90;;
55112;SDS011;41006;50.920;3.456;2023-03-13T02:33:16;14.43;;;13.32;;
55112;SDS011;41006;50.920;3.456;2023-03-13T02:33:51;27.30;;;14.55;;
55112;SDS011;41006;50.920;3.456;2023-03-13T02:34:23;14.30;;;12.98;;
55112;SDS011;41006;50.920;3.456;2023-03-13T02:34:57;13.70;;;12.68;;
55112;SDS011;41006;50.920;3.456;2023-03-13T02:35:28;14.65;;;13.25;;
55112;SDS011;41006;50.920;3.456;2023-03-13T02:36:02;15.32;;;14.02;;
55112;SDS011;41006;50.920;3.456;2023-03-13T02:36:35;13.88;;;12.73;;
55112;SDS011;41006;50.920;3.456;2023-03-13T02:37:06;13.57;;;12.57;;
55112;SDS011;41006;50.920;3.456;2023-03-13T02:37:42;14.00;;;12.90;;
55112;SDS011;41006;50.920;3.456;2023-03-13T02:38:18;14.10;;;12.95;;
55112;SDS011;41006;50.920;3.456;2023-03-13T02:38:54;13.32;;;12.23;;
55112;SDS011;41006;50.920;3.456;2023-03-13T02:39:25;13.20;;;12.20;;
55112;SDS011;41006;50.920;3.456;2023-03-13T02:39:57;13.70;;;12.68;;
55112;SDS011;41006;50.920;3.456;2023-03-13T02:40:33;13.88;;;12.80;;
55112;SDS011;41006;50.920;3.456;2023-03-13T02:41:04;13.45;;;12.20;;
55112;SDS011;41006;50.920;3.456;2023-03-13T02:41:37;14.15;;;12.88;;
55112;SDS011;41006;50.920;3.456;2023-03-13T02:42:10;13.65;;;12.48;;
55112;SDS011;41006;50.920;3.456;2023-03-13T02:42:42;13.70;;;12.35;;
55112;SDS011;41006;50.920;3.456;2023-03-13T02:43:36;12.30;;;11.43;;
55112;SDS011;41006;50.920;3.456;2023-03-13T02:44:08;13.07;;;11.93;;
55112;SDS011;41006;50.920;3.456;2023-03-13T02:44:38;13.13;;;12.13;;
55112;SDS011;41006;50.920;3.456;2023-03-13T02:45:14;13.02;;;11.93;;
55112;SDS011;41006;50.920;3.456;2023-03-13T02:46:46;12.55;;;11.55;;
55112;SDS011;41006;50.920;3.456;2023-03-13T02:47:24;13.10;;;11.98;;
55112;SDS011;41006;50.920;3.456;2023-03-13T02:47:55;13.30;;;12.18;;
55112;SDS011;41006;50.920;3.456;2023-03-13T02:48:32;13.75;;;12.35;;
55112;SDS011;41006;50.920;3.456;2023-03-13T02:49:09;12.43;;;11.32;;
55112;SDS011;41006;50.920;3.456;2023-03-13T02:49:45;12.52;;;11.52;;
55112;SDS011;41006;50.920;3.456;2023-03-13T02:50:16;12.45;;;11.48;;
55112;SDS011;41006;50.920;3.456;2023-03-13T02:50:46;13.57;;;12.48;;
55112;SDS011;41006;50.920;3.456;2023-03-13T02:51:59;12.00;;;11.10;;
55112;SDS011;41006;50.920;3.456;2023-03-13T02:52:45;13.50;;;12.20;;
55112;SDS011;41006;50.920;3.456;2023-03-13T02:53:19;11.95;;;11.05;;
55112;SDS011;41006;50.920;3.456;2023-03-13T02:53:52;12.48;;;11.43;;
55112;SDS011;41006;50.920;3.456;2023-03-13T02:54:26;13.02;;;12.07;;
55112;SDS011;41006;50.920;3.456;2023-03-13T02:55:02;12.98;;;11.98;;
55112;SDS011;41006;50.920;3.456;2023-03-13T02:55:38;12.68;;;11.70;;
55112;SDS011;41006;50.920;3.456;2023-03-13T02:56:10;14.13;;;12.80;;
55112;SDS011;41006;50.920;3.456;2023-03-13T02:56:41;12.77;;;11.73;;
55112;SDS011;41006;50.920;3.456;2023-03-13T02:57:12;15.68;;;12.85;;
55112;SDS011;41006;50.920;3.456;2023-03-13T02:57:45;12.57;;;11.75;;
55112;SDS011;41006;50.920;3.456;2023-03-13T02:58:15;13.32;;;12.23;;
55112;SDS011;41006;50.920;3.456;2023-03-13T02:58:45;13.07;;;12.18;;
55112;SDS011;41006;50.920;3.456;2023-03-13T02:59:20;12.63;;;11.52;;
55112;SDS011;41006;50.920;3.456;2023-03-13T02:59:51;13.80;;;12.20;;
55112;SDS011;41006;50.920;3.456;2023-03-13T03:00:21;12.30;;;11.25;;
55112;SDS011;41006;50.920;3.456;2023-03-13T03:00:57;13.10;;;12.10;;
55112;SDS011;41006;50.920;3.456;2023-03-13T03:01:36;12.55;;;11.45;;
55112;SDS011;41006;50.920;3.456;2023-03-13T03:02:06;12.73;;;11.77;;
55112;SDS011;41006;50.920;3.456;2023-03-13T03:02:39;13.18;;;12.00;;
55112;SDS011;41006;50.920;3.456;2023-03-13T03:03:09;12.48;;;11.30;;
55112;SDS011;41006;50.920;3.456;2023-03-13T03:03:42;12.13;;;11.07;;
55112;SDS011;41006;50.920;3.456;2023-03-13T03:04:14;13.52;;;11.88;;
55112;SDS011;41006;50.920;3.456;2023-03-13T03:04:45;13.40;;;12.13;;
55112;SDS011;41006;50.920;3.456;2023-03-13T03:05:15;12.40;;;11.50;;
55112;SDS011;41006;50.920;3.456;2023-03-13T03:05:45;12.90;;;11.85;;
55112;SDS011;41006;50.920;3.456;2023-03-13T03:06:15;12.60;;;11.52;;
55112;SDS011;41006;50.920;3.456;2023-03-13T03:06:51;13.82;;;12.70;;
55112;SDS011;41006;50.920;3.456;2023-03-13T03:07:21;13.02;;;11.98;;
55112;SDS011;41006;50.920;3.456;2023-03-13T03:07:51;13.48;;;12.27;;
55112;SDS011;41006;50.920;3.456;2023-03-13T03:08:21;14.20;;;12.80;;
55112;SDS011;41006;50.920;3.456;2023-03-13T03:08:55;13.05;;;11.95;;
55112;SDS011;41006;50.920;3.456;2023-03-13T03:09:27;12.63;;;11.77;;
55112;SDS011;41006;50.920;3.456;2023-03-13T03:09:58;13.30;;;12.20;;
55112;SDS011;41006;50.920;3.456;2023-03-13T03:10:28;13.35;;;12.32;;
55112;SDS011;41006;50.920;3.456;2023-03-13T03:11:01;13.90;;;12.82;;
55112;SDS011;41006;50.920;3.456;2023-03-13T03:11:31;13.55;;;12.25;;
55112;SDS011;41006;50.920;3.456;2023-03-13T03:12:04;13.10;;;11.95;;
55112;SDS011;41006;50.920;3.456;2023-03-13T03:12:34;12.82;;;11.82;;
55112;SDS011;41006;50.920;3.456;2023-03-13T03:13:07;12.52;;;11.63;;
55112;SDS011;41006;50.920;3.456;2023-03-13T03:13:39;13.48;;;12.23;;
55112;SDS011;41006;50.920;3.456;2023-03-13T03:14:10;12.57;;;11.32;;
55112;SDS011;41006;50.920;3.456;2023-03-13T03:14:41;13.73;;;12.43;;
55112;SDS011;41006;50.920;3.456;2023-03-13T03:15:11;13.05;;;12.00;;
55112;SDS011;41006;50.920;3.456;2023-03-13T03:15:41;14.48;;;12.02;;
55112;SDS011;41006;50.920;3.456;2023-03-13T03:16:12;13.05;;;12.00;;
55112;SDS011;41006;50.920;3.456;2023-03-13T03:16:44;13.00;;;11.70;;
55112;SDS011;41006;50.920;3.456;2023-03-13T03:17:14;13.45;;;12.40;;